Time;durP1;ratioP1;P1;durP2;ratioP2;P2;SDS_P1;SDS_P2;PMS_P1;PMS_P2;Temp;Humidity;BMP_temperature;BMP_pressure;BME280_temperature;BME280_humidity;BME280_pressure;Samples;Min_cycle;Max_cycle;Signal;HPM_P1;HPM_P2
2023/11/10 00:01:48;;;;;;;3.45;1.80;;;6.10;99.90;;;;;;4954233;28;20114;-89
2023/11/10 00:04:14;;;;;;;1.20;1.10;;;6.20;99.90;;;;;;4954844;29;20110;-90
2023/11/10 00:06:43;;;;;;;2.67;1.40;;;6.20;99.90;;;;;;4970723;28;20596;-90
2023/11/10 00:09:09;;;;;;;11.52;1.73;;;6.20;99.90;;;;;;4967953;28;20039;-90
2023/11/10 00:11:35;;;;;;;7.72;1.60;;;6.20;99.90;;;;;;4954271;28;20020;-90
2023/11/10 00:14:00;;;;;;;2.60;1.35;;;6.20;99.90;;;;;;4954527;28;20419;-90
2023/11/10 00:16:26;;;;;;;1.30;1.10;;;6.20;99.90;;;;;;4955367;29;20019;-90
2023/11/10 00:18:56;;;;;;;2.30;1.48;;;6.10;99.90;;;;;;4955396;28;20031;-90
2023/11/10 00:21:23;;;;;;;1.70;1.02;;;6.10;99.90;;;;;;4970421;28;20110;-90
2023/11/10 00:23:49;;;;;;;2.10;0.80;;;6.10;99.90;;;;;;4970222;28;20034;-90
2023/11/10 00:26:25;;;;;;;3.15;1.95;;;6.10;99.90;;;;;;4954186;28;20038;-91
2023/11/10 00:28:52;;;;;;;4.40;0.90;;;6.10;99.90;;;;;;4951837;29;20023;-90
2023/11/10 00:31:18;;;;;;;2.58;0.70;;;6.10;99.90;;;;;;4954076;29;20019;-90
2023/11/10 00:33:45;;;;;;;3.55;0.80;;;6.10;99.90;;;;;;4953717;29;20047;-89
2023/11/10 00:36:10;;;;;;;4.05;1.02;;;6.10;99.90;;;;;;4953882;28;20027;-91
2023/11/10 00:38:36;;;;;;;2.33;0.57;;;6.10;99.90;;;;;;4969884;28;20347;-89
2023/11/10 00:41:02;;;;;;;1.02;0.55;;;6.10;99.90;;;;;;4969927;28;20082;-89
2023/11/10 00:43:27;;;;;;;1.20;0.80;;;6.10;99.90;;;;;;4969540;28;20489;-90
2023/11/10 00:45:55;;;;;;;2.47;0.50;;;6.00;99.90;;;;;;4969449;28;20126;-90
2023/11/10 00:48:21;;;;;;;3.28;0.65;;;6.10;99.90;;;;;;4969953;28;20129;-90
2023/11/10 00:50:47;;;;;;;1.60;0.45;;;6.10;99.90;;;;;;4969850;28;20023;-89
2023/11/10 00:53:13;;;;;;;5.65;0.75;;;6.10;99.90;;;;;;4953750;29;20047;-89
2023/11/10 00:55:38;;;;;;;1.65;0.52;;;6.10;99.90;;;;;;4969729;28;20033;-90
2023/11/10 00:58:04;;;;;;;2.92;0.77;;;6.20;99.90;;;;;;4969401;28;20072;-90
2023/11/10 01:00:30;;;;;;;2.95;0.90;;;6.20;99.90;;;;;;4969367;28;20426;-91
2023/11/10 01:02:56;;;;;;;3.83;1.13;;;6.20;99.90;;;;;;4969812;28;20114;-90
2023/11/10 01:05:22;;;;;;;3.00;0.70;;;6.20;99.90;;;;;;4953907;29;20130;-90
2023/11/10 01:07:49;;;;;;;3.63;0.70;;;6.20;99.90;;;;;;4954056;28;20039;-90
2023/11/10 01:10:15;;;;;;;3.35;1.13;;;6.20;99.90;;;;;;4969884;28;20138;-90
2023/11/10 01:12:41;;;;;;;1.42;0.80;;;6.20;99.90;;;;;;4970033;28;20470;-90
2023/11/10 01:15:08;;;;;;;1.05;0.60;;;6.20;99.90;;;;;;4969929;28;20130;-89
2023/11/10 01:17:34;;;;;;;2.22;0.60;;;6.20;99.90;;;;;;4969596;28;20019;-90
2023/11/10 01:20:00;;;;;;;4.38;0.85;;;6.20;99.90;;;;;;4969376;28;20051;-89
2023/11/10 01:22:27;;;;;;;1.73;0.50;;;6.20;99.90;;;;;;4953245;29;20020;-90
2023/11/10 01:24:55;;;;;;;5.32;0.77;;;6.20;99.90;;;;;;4969556;28;20097;-89
2023/11/10 01:27:21;;;;;;;4.57;0.80;;;6.20;99.90;;;;;;4953444;29;20035;-91
2023/11/10 01:29:47;;;;;;;3.30;0.80;;;6.30;99.90;;;;;;4953684;29;20030;-90
2023/11/10 01:32:13;;;;;;;4.68;0.70;;;6.30;99.90;;;;;;4953952;29;20031;-90
2023/11/10 01:34:41;;;;;;;3.90;0.80;;;6.30;99.90;;;;;;4953400;29;20090;-89
2023/11/10 01:37:07;;;;;;;1.77;0.60;;;6.30;99.90;;;;;;4969747;28;20051;-89
2023/11/10 01:39:33;;;;;;;6.63;0.80;;;6.20;99.90;;;;;;4953233;29;20495;-90
2023/11/10 01:41:59;;;;;;;2.42;0.50;;;6.30;99.90;;;;;;4953468;28;20078;-89
2023/11/10 01:44:25;;;;;;;1.25;0.50;;;6.20;99.90;;;;;;4969806;28;20043;-89
2023/11/10 01:46:52;;;;;;;2.88;0.90;;;6.20;99.90;;;;;;4969640;28;20050;-89
2023/11/10 01:49:23;;;;;;;1.63;0.65;;;6.20;99.90;;;;;;4953700;29;20027;-90
2023/11/10 01:51:51;;;;;;;3.50;0.77;;;6.20;99.90;;;;;;4969418;28;20031;-91
2023/11/10 01:54:21;;;;;;;3.65;1.00;;;6.20;99.90;;;;;;4956960;28;20039;-89
2023/11/10 01:56:47;;;;;;;1.23;0.57;;;6.20;99.90;;;;;;4971003;28;20446;-90
2023/11/10 01:59:14;;;;;;;2.58;0.88;;;6.20;99.90;;;;;;4956990;28;20031;-89
2023/11/10 02:01:41;;;;;;;1.95;0.52;;;6.20;99.90;;;;;;4957001;28;20023;-89
2023/11/10 02:04:09;;;;;;;5.68;1.05;;;6.20;99.90;;;;;;4956682;28;20429;-90
2023/11/10 02:06:35;;;;;;;3.53;0.70;;;6.20;99.90;;;;;;4956692;29;20046;-90
2023/11/10 02:09:02;;;;;;;0.80;0.70;;;6.20;99.90;;;;;;4973016;28;20477;-90
2023/11/10 02:11:32;;;;;;;5.38;1.35;;;6.20;99.90;;;;;;4956954;29;20031;-90
2023/11/10 02:14:02;;;;;;;3.08;1.00;;;6.20;99.90;;;;;;4972797;28;20103;-90
2023/11/10 02:16:28;;;;;;;3.53;1.05;;;6.20;99.90;;;;;;4972720;28;20113;-90
2023/11/10 02:18:55;;;;;;;4.63;1.08;;;6.20;99.90;;;;;;4956396;28;20116;-92
2023/11/10 02:21:21;;;;;;;1.63;0.85;;;6.20;99.90;;;;;;4956752;28;20128;-89
2023/11/10 02:23:51;;;;;;;3.45;1.25;;;6.20;99.90;;;;;;4972633;28;20071;-90
2023/11/10 02:26:17;;;;;;;2.60;1.45;;;6.20;99.90;;;;;;4956368;29;20059;-89
2023/11/10 02:28:43;;;;;;;5.22;1.17;;;6.20;99.90;;;;;;4956490;29;20516;-89
2023/11/10 02:31:08;;;;;;;4.97;0.90;;;6.20;99.90;;;;;;4957589;29;20481;-90
2023/11/10 02:33:34;;;;;;;3.60;1.15;;;6.20;99.90;;;;;;4972133;28;20055;-90
2023/11/10 02:36:01;;;;;;;3.30;0.82;;;6.20;99.90;;;;;;4972219;28;20047;-90
2023/11/10 02:38:30;;;;;;;1.30;0.88;;;6.20;99.90;;;;;;4957539;28;20027;-92
2023/11/10 02:40:56;;;;;;;5.03;1.30;;;6.20;99.90;;;;;;4956314;29;20040;-90
2023/11/10 02:43:22;;;;;;;3.47;1.20;;;6.20;99.90;;;;;;4975358;28;20480;-90
2023/11/10 02:45:47;;;;;;;3.25;1.08;;;6.20;99.90;;;;;;4959251;28;20039;-89
2023/11/10 02:48:13;;;;;;;2.90;1.15;;;6.20;99.90;;;;;;4958904;28;20065;-90
2023/11/10 02:50:38;;;;;;;2.65;1.30;;;6.20;99.90;;;;;;4959115;28;20038;-89
2023/11/10 02:53:04;;;;;;;8.13;1.58;;;6.20;99.90;;;;;;4958742;28;20030;-90
2023/11/10 02:55:30;;;;;;;4.57;1.40;;;6.20;99.90;;;;;;4974992;28;20578;-89
2023/11/10 02:57:55;;;;;;;1.73;0.70;;;6.20;99.90;;;;;;4958602;28;20038;-89
2023/11/10 03:00:21;;;;;;;1.17;0.75;;;6.20;99.90;;;;;;4958771;28;20031;-89
2023/11/10 03:02:47;;;;;;;4.00;1.08;;;6.20;99.90;;;;;;4973402;28;20054;-90
2023/11/10 03:05:12;;;;;;;2.33;0.98;;;6.30;99.90;;;;;;4958919;28;20042;-89
2023/11/10 03:07:38;;;;;;;5.97;2.25;;;6.20;99.90;;;;;;4958652;28;20022;-89
2023/11/10 03:10:04;;;;;;;3.22;1.10;;;6.30;99.90;;;;;;4958606;28;20034;-89
2023/11/10 03:12:32;;;;;;;6.43;1.98;;;6.20;99.90;;;;;;4958468;28;20023;-90
2023/11/10 03:14:58;;;;;;;6.03;1.88;;;6.30;99.90;;;;;;4958667;28;20035;-90
2023/11/10 03:17:24;;;;;;;4.90;1.90;;;6.30;99.90;;;;;;4975241;28;20046;-89
2023/11/10 03:19:50;;;;;;;2.38;1.73;;;6.30;99.90;;;;;;4975253;28;20488;-89
2023/11/10 03:22:17;;;;;;;2.67;1.55;;;6.20;99.90;;;;;;4959133;28;20027;-89
2023/11/10 03:24:44;;;;;;;3.50;2.00;;;6.30;99.90;;;;;;4974651;28;20027;-89
2023/11/10 03:27:10;;;;;;;3.90;2.05;;;6.20;99.90;;;;;;4972193;28;20023;-90
2023/11/10 03:29:36;;;;;;;8.38;2.30;;;6.20;99.90;;;;;;4974312;28;20041;-89
2023/11/10 03:32:04;;;;;;;6.30;2.63;;;6.30;99.90;;;;;;4958041;28;20035;-89
2023/11/10 03:34:29;;;;;;;5.72;2.80;;;6.30;99.90;;;;;;4958053;28;20376;-89
2023/11/10 03:36:55;;;;;;;5.28;1.67;;;6.20;99.90;;;;;;4974441;28;20034;-90
2023/11/10 03:39:21;;;;;;;4.45;2.05;;;6.20;99.90;;;;;;4957738;28;20603;-90
2023/11/10 03:41:47;;;;;;;2.35;1.90;;;6.20;99.90;;;;;;4957938;28;20464;-90
2023/11/10 03:44:12;;;;;;;4.95;1.70;;;6.20;99.90;;;;;;4954693;28;20055;-89
2023/11/10 03:46:39;;;;;;;1.90;1.60;;;6.20;99.90;;;;;;4970724;28;20393;-90
2023/11/10 03:49:04;;;;;;;3.22;2.00;;;6.10;99.90;;;;;;4955101;28;20373;-90
2023/11/10 03:51:30;;;;;;;4.32;1.60;;;6.10;99.90;;;;;;4970844;28;20067;-90
2023/11/10 03:53:56;;;;;;;3.60;2.00;;;6.20;99.90;;;;;;4954801;28;20361;-90
2023/11/10 03:56:21;;;;;;;8.68;2.40;;;6.10;99.90;;;;;;4955690;28;20452;-92
2023/11/10 03:58:48;;;;;;;5.65;2.70;;;6.20;99.90;;;;;;4957322;29;20027;-90
2023/11/10 04:01:13;;;;;;;5.45;2.70;;;6.10;99.90;;;;;;4955266;28;20025;-92
2023/11/10 04:03:41;;;;;;;7.03;3.00;;;6.20;99.90;;;;;;4970910;28;20106;-90
2023/11/10 04:06:07;;;;;;;3.58;2.50;;;6.20;99.90;;;;;;4953916;28;20074;-90
2023/11/10 04:08:32;;;;;;;7.05;2.85;;;6.10;99.90;;;;;;4968928;28;20058;-90
2023/11/10 04:10:58;;;;;;;5.85;2.97;;;6.20;99.90;;;;;;4952698;29;20461;-91
2023/11/10 04:13:24;;;;;;;7.28;2.00;;;6.20;99.90;;;;;;4952708;29;20469;-92
2023/11/10 04:15:49;;;;;;;5.85;2.85;;;6.10;99.90;;;;;;4968230;28;20031;-90
2023/11/10 04:18:16;;;;;;;5.45;3.22;;;6.10;99.90;;;;;;4952830;29;20062;-90
2023/11/10 04:20:44;;;;;;;7.13;3.80;;;6.10;99.90;;;;;;4952219;28;20532;-90
2023/11/10 04:23:10;;;;;;;9.50;3.80;;;6.10;99.90;;;;;;4952780;29;20031;-91
2023/11/10 04:25:36;;;;;;;8.75;3.20;;;6.10;99.90;;;;;;4953245;28;20253;-90
2023/11/10 04:28:02;;;;;;;5.50;3.17;;;6.10;99.90;;;;;;4954487;28;20071;-91
2023/11/10 04:30:28;;;;;;;6.28;2.95;;;6.10;99.90;;;;;;4954329;29;20057;-92
2023/11/10 04:32:57;;;;;;;6.57;4.32;;;6.10;99.90;;;;;;4954001;29;20097;-92
2023/11/10 04:35:22;;;;;;;8.02;3.30;;;6.10;99.90;;;;;;4954037;29;20042;-92
2023/11/10 04:37:51;;;;;;;7.75;3.30;;;6.10;99.90;;;;;;4952488;28;20015;-90
2023/11/10 04:40:18;;;;;;;5.53;3.40;;;6.10;99.90;;;;;;4953952;28;20031;-90
2023/11/10 04:42:44;;;;;;;6.55;3.35;;;6.10;99.90;;;;;;4969924;28;20019;-90
2023/11/10 04:45:10;;;;;;;4.97;2.72;;;6.10;99.90;;;;;;4953500;28;20519;-90
2023/11/10 04:47:36;;;;;;;4.03;2.17;;;6.10;99.90;;;;;;4969743;28;20032;-89
2023/11/10 04:50:02;;;;;;;11.30;4.47;;;6.20;99.90;;;;;;4954059;29;20122;-91
2023/11/10 04:52:27;;;;;;;9.02;4.22;;;6.10;99.90;;;;;;4953821;29;20047;-90
2023/11/10 04:54:54;;;;;;;5.53;3.58;;;6.20;99.90;;;;;;4953973;29;20024;-91
2023/11/10 04:57:20;;;;;;;13.35;4.88;;;6.10;99.90;;;;;;4953830;29;20015;-91
2023/11/10 04:59:47;;;;;;;7.15;4.18;;;6.10;99.90;;;;;;4969815;28;20062;-89
2023/11/10 05:02:13;;;;;;;7.30;4.60;;;6.10;99.90;;;;;;4970037;28;20035;-91
2023/11/10 05:04:39;;;;;;;4.07;2.15;;;6.10;99.90;;;;;;4969775;28;20031;-92
2023/11/10 05:07:07;;;;;;;8.73;4.38;;;6.00;99.90;;;;;;4951387;29;20457;-90
2023/11/10 05:09:33;;;;;;;9.52;4.85;;;6.00;99.90;;;;;;4953738;29;20074;-91
2023/11/10 05:11:59;;;;;;;12.07;4.97;;;6.00;99.90;;;;;;4954937;29;20119;-92
2023/11/10 05:14:25;;;;;;;20.40;6.35;;;5.90;99.90;;;;;;4953681;28;20445;-88
2023/11/10 05:16:50;;;;;;;12.07;6.45;;;5.90;99.90;;;;;;4953992;29;20019;-93
2023/11/10 05:19:16;;;;;;;26.45;7.43;;;5.90;99.90;;;;;;4953935;29;20477;-88
2023/11/10 05:21:42;;;;;;;15.63;7.78;;;5.90;99.90;;;;;;4953861;28;20544;-91
2023/11/10 05:24:10;;;;;;;12.52;6.88;;;5.80;99.90;;;;;;4969912;28;20031;-91
2023/11/10 05:26:36;;;;;;;13.23;6.72;;;5.80;99.90;;;;;;4971331;28;20078;-91
2023/11/10 05:29:02;;;;;;;13.65;6.65;;;5.80;99.90;;;;;;4958216;29;20027;-91
2023/11/10 05:31:28;;;;;;;13.60;6.45;;;5.70;99.90;;;;;;4958673;28;20042;-91
2023/11/10 05:33:56;;;;;;;13.23;6.72;;;5.70;99.90;;;;;;4956938;28;20090;-91
2023/11/10 05:36:24;;;;;;;11.45;6.82;;;5.70;99.90;;;;;;4958650;29;20058;-91
2023/11/10 05:38:50;;;;;;;14.55;6.25;;;5.70;99.90;;;;;;4973446;28;20082;-90
2023/11/10 05:41:15;;;;;;;15.88;6.50;;;5.70;99.90;;;;;;4973155;28;20600;-91
2023/11/10 05:43:41;;;;;;;10.00;5.55;;;5.60;99.90;;;;;;4973160;28;20495;-91
2023/11/10 05:46:07;;;;;;;12.55;5.80;;;5.70;99.90;;;;;;4957216;28;20027;-91
2023/11/10 05:48:33;;;;;;;10.27;5.60;;;5.70;99.90;;;;;;4972843;28;20023;-90
2023/11/10 05:51:03;;;;;;;10.65;6.20;;;5.70;99.90;;;;;;4973251;28;20019;-90
2023/11/10 05:53:31;;;;;;;15.30;6.53;;;5.70;99.90;;;;;;4971045;28;20125;-90
2023/11/10 05:55:57;;;;;;;11.77;6.43;;;5.70;99.90;;;;;;4956864;28;20031;-91
2023/11/10 05:58:23;;;;;;;14.55;6.40;;;5.70;99.90;;;;;;4956804;28;20429;-90
2023/11/10 06:00:50;;;;;;;13.23;6.05;;;5.70;99.90;;;;;;4973087;28;20023;-90
2023/11/10 06:03:16;;;;;;;14.30;6.95;;;5.70;99.90;;;;;;4957883;28;20038;-90
2023/11/10 06:05:42;;;;;;;14.07;7.15;;;5.70;99.90;;;;;;4973192;28;20023;-90
2023/11/10 06:08:08;;;;;;;16.60;7.72;;;5.70;99.90;;;;;;4958289;29;20655;-90
2023/11/10 06:10:34;;;;;;;16.52;8.43;;;5.60;99.90;;;;;;4964200;29;20020;-90
2023/11/10 06:13:00;;;;;;;16.23;7.28;;;5.60;99.90;;;;;;4988243;28;20074;-91
2023/11/10 06:15:26;;;;;;;11.48;6.28;;;5.70;99.90;;;;;;4972100;29;20063;-90
2023/11/10 06:17:52;;;;;;;13.48;6.20;;;5.60;99.90;;;;;;4987155;28;20067;-91
2023/11/10 06:20:17;;;;;;;17.17;7.80;;;5.60;99.90;;;;;;4983323;28;20090;-91
2023/11/10 06:22:43;;;;;;;12.98;6.70;;;5.70;99.90;;;;;;4984242;28;20019;-90
2023/11/10 06:25:10;;;;;;;14.40;6.55;;;5.60;99.90;;;;;;4967837;28;20035;-89
2023/11/10 06:27:36;;;;;;;18.08;6.75;;;5.60;99.90;;;;;;4983593;28;20027;-90
2023/11/10 06:30:03;;;;;;;14.35;7.25;;;5.60;99.90;;;;;;4977516;28;20086;-90
2023/11/10 06:32:30;;;;;;;13.48;7.32;;;5.60;99.90;;;;;;4959861;28;20015;-90
2023/11/10 06:34:56;;;;;;;14.63;6.93;;;5.60;99.90;;;;;;4975870;28;20401;-92
2023/11/10 06:37:23;;;;;;;13.32;6.55;;;5.60;99.90;;;;;;4959131;28;20027;-90
2023/11/10 06:39:49;;;;;;;13.43;7.00;;;5.60;99.90;;;;;;4958388;28;20485;-90
2023/11/10 06:42:15;;;;;;;10.95;5.55;;;5.60;99.90;;;;;;4958349;29;20035;-90
2023/11/10 06:44:41;;;;;;;12.15;5.22;;;5.50;99.90;;;;;;4975092;28;20054;-90
2023/11/10 06:47:07;;;;;;;9.43;5.20;;;5.50;99.90;;;;;;4959290;28;20020;-90
2023/11/10 06:49:33;;;;;;;10.23;3.90;;;5.50;99.90;;;;;;4975445;29;20035;-89
2023/11/10 06:51:59;;;;;;;7.90;4.38;;;5.50;99.90;;;;;;4962424;28;20464;-90
2023/11/10 06:54:24;;;;;;;15.23;4.53;;;5.50;99.90;;;;;;4956201;29;20043;-90
2023/11/10 06:56:53;;;;;;;8.73;3.92;;;5.40;99.90;;;;;;4973126;28;20051;-90
2023/11/10 06:59:21;;;;;;;9.65;4.20;;;5.40;99.90;;;;;;4972112;28;20074;-90
2023/11/10 07:01:51;;;;;;;7.57;4.15;;;5.40;99.90;;;;;;4968457;28;20028;-92
2023/11/10 07:04:16;;;;;;;17.17;5.72;;;5.40;99.90;;;;;;4954864;29;20032;-90
2023/11/10 07:06:42;;;;;;;16.05;4.32;;;5.30;99.90;;;;;;4955505;29;20038;-92
2023/11/10 07:09:09;;;;;;;8.57;4.47;;;5.30;99.90;;;;;;4971663;28;20031;-89
2023/11/10 07:11:34;;;;;;;9.02;4.63;;;5.30;99.90;;;;;;4954679;28;20114;-92
2023/11/10 07:14:02;;;;;;;7.40;3.80;;;5.20;99.90;;;;;;4971461;28;20118;-91
2023/11/10 07:16:28;;;;;;;10.23;4.30;;;5.20;99.90;;;;;;4952914;29;20473;-91
2023/11/10 07:18:53;;;;;;;9.43;4.20;;;5.20;99.90;;;;;;4955670;28;20059;-91
2023/11/10 07:21:19;;;;;;;7.20;3.78;;;5.20;99.90;;;;;;4954915;29;20034;-91
2023/11/10 07:23:44;;;;;;;9.85;3.95;;;5.20;99.90;;;;;;4956222;28;20019;-91
2023/11/10 07:26:13;;;;;;;5.75;3.30;;;5.20;99.90;;;;;;4957073;28;20019;-91
2023/11/10 07:28:38;;;;;;;8.82;3.25;;;5.20;99.90;;;;;;4975174;28;20027;-91
2023/11/10 07:31:04;;;;;;;7.20;3.42;;;5.20;99.90;;;;;;4983629;28;20062;-91
2023/11/10 07:33:29;;;;;;;6.65;3.60;;;5.20;99.90;;;;;;4954749;28;20070;-90
2023/11/10 07:35:55;;;;;;;8.05;3.35;;;5.10;99.90;;;;;;4969004;28;20031;-92
2023/11/10 07:38:21;;;;;;;5.28;3.05;;;5.20;99.90;;;;;;4969592;28;20366;-91
2023/11/10 07:40:46;;;;;;;6.75;2.80;;;5.10;99.90;;;;;;4955848;28;20023;-92
2023/11/10 07:43:12;;;;;;;6.60;3.30;;;5.20;99.90;;;;;;4956552;28;20107;-91
2023/11/10 07:45:38;;;;;;;15.27;5.03;;;5.10;99.90;;;;;;4974373;28;20044;-92
2023/11/10 07:48:05;;;;;;;4.75;2.97;;;5.10;99.90;;;;;;4957874;28;20503;-92
2023/11/10 07:50:30;;;;;;;5.63;2.90;;;5.10;99.90;;;;;;4973735;28;20027;-92
2023/11/10 07:52:56;;;;;;;7.25;2.95;;;5.00;99.90;;;;;;4958148;28;20412;-90
2023/11/10 07:55:22;;;;;;;5.57;3.17;;;5.00;99.90;;;;;;4958041;28;20569;-92
2023/11/10 07:57:48;;;;;;;4.97;2.83;;;5.00;99.90;;;;;;4957914;28;20031;-90
2023/11/10 08:00:16;;;;;;;5.13;3.25;;;5.10;99.90;;;;;;4975452;28;20338;-92
2023/11/10 08:02:42;;;;;;;6.07;2.60;;;5.00;99.90;;;;;;4957642;28;20037;-91
2023/11/10 08:05:08;;;;;;;7.28;3.55;;;5.00;99.90;;;;;;4973507;28;20030;-91
2023/11/10 08:07:34;;;;;;;4.82;2.85;;;5.00;99.90;;;;;;4957986;28;20027;-92
2023/11/10 08:10:02;;;;;;;6.25;2.58;;;5.00;99.90;;;;;;4973900;28;20508;-92
2023/11/10 08:12:29;;;;;;;5.20;2.60;;;5.00;99.90;;;;;;4974975;28;20031;-91
2023/11/10 08:14:55;;;;;;;6.22;2.60;;;4.90;99.90;;;;;;4958857;28;20173;-90
2023/11/10 08:17:21;;;;;;;6.05;2.72;;;4.90;99.90;;;;;;4958690;28;20031;-90
2023/11/10 08:19:47;;;;;;;5.75;3.30;;;4.90;99.90;;;;;;4962466;28;20063;-89
2023/11/10 08:22:13;;;;;;;5.50;2.80;;;4.90;99.90;;;;;;4963534;28;20085;-90
2023/11/10 08:24:39;;;;;;;5.47;3.67;;;4.90;99.90;;;;;;4979707;28;20031;-91
2023/11/10 08:27:06;;;;;;;7.60;3.15;;;4.90;99.90;;;;;;4965016;28;20054;-90
2023/11/10 08:29:32;;;;;;;7.57;4.15;;;4.90;99.90;;;;;;4982125;28;20037;-91
2023/11/10 08:31:58;;;;;;;9.30;3.80;;;5.00;99.90;;;;;;4961798;28;20090;-90
2023/11/10 08:34:24;;;;;;;10.85;4.40;;;5.00;99.90;;;;;;4973897;28;20370;-91
2023/11/10 08:36:50;;;;;;;11.70;4.22;;;5.00;99.90;;;;;;4958367;28;20069;-91
2023/11/10 08:39:18;;;;;;;9.55;4.07;;;5.00;99.90;;;;;;4975683;28;20532;-90
2023/11/10 08:41:48;;;;;;;10.43;5.32;;;5.10;99.90;;;;;;4975377;28;20023;-92
2023/11/10 08:44:14;;;;;;;7.80;4.33;;;5.20;99.90;;;;;;4971900;28;20513;-93
2023/11/10 08:46:43;;;;;;;6.32;4.00;;;5.30;99.90;;;;;;4954608;28;20027;-91
2023/11/10 08:49:09;;;;;;;6.47;3.75;;;5.40;99.90;;;;;;4955929;29;20066;-92
2023/11/10 08:51:47;;;;;;;13.88;4.75;;;5.50;99.90;;;;;;4971103;28;20055;-91
2023/11/10 08:54:13;;;;;;;9.60;4.03;;;5.60;99.90;;;;;;4969029;28;20062;-91
2023/11/10 08:56:38;;;;;;;8.77;4.22;;;5.60;99.90;;;;;;4954925;28;20019;-90
2023/11/10 08:59:04;;;;;;;8.27;4.28;;;5.70;99.90;;;;;;4970974;28;20031;-91
2023/11/10 09:01:31;;;;;;;7.88;4.22;;;5.80;99.90;;;;;;4955849;28;20020;-92
2023/11/10 09:03:57;;;;;;;7.30;3.80;;;5.90;99.90;;;;;;4958608;28;20031;-91
2023/11/10 09:06:23;;;;;;;7.78;3.90;;;5.90;99.90;;;;;;4976284;28;20031;-91
2023/11/10 09:08:50;;;;;;;8.93;3.60;;;6.10;99.90;;;;;;4976752;28;20050;-91
2023/11/10 09:11:16;;;;;;;6.38;3.50;;;6.20;99.90;;;;;;4960329;28;20055;-90
2023/11/10 09:13:42;;;;;;;6.53;3.20;;;6.30;99.90;;;;;;4958586;29;20074;-91
2023/11/10 09:16:08;;;;;;;4.32;3.00;;;6.40;99.90;;;;;;4957833;28;20074;-91
2023/11/10 09:18:34;;;;;;;5.97;3.10;;;6.60;99.90;;;;;;4957979;28;20118;-91
2023/11/10 09:21:00;;;;;;;3.78;2.80;;;6.70;99.90;;;;;;4958170;28;20504;-91
2023/11/10 09:23:29;;;;;;;5.93;3.17;;;6.90;99.90;;;;;;4970869;28;20114;-91
2023/11/10 09:25:56;;;;;;;4.30;2.85;;;7.10;99.90;;;;;;4957893;28;20568;-91
2023/11/10 09:28:24;;;;;;;3.75;2.95;;;7.40;99.90;;;;;;4973702;28;20027;-91
2023/11/10 09:30:53;;;;;;;6.65;3.22;;;7.70;99.90;;;;;;4973610;28;20027;-91
2023/11/10 09:33:22;;;;;;;4.72;2.83;;;7.90;99.90;;;;;;4974450;28;20497;-89
2023/11/10 09:35:49;;;;;;;4.38;2.88;;;8.00;99.90;;;;;;4971228;28;20034;-91
2023/11/10 09:38:15;;;;;;;4.07;2.65;;;8.20;99.90;;;;;;4957358;28;20031;-90
2023/11/10 09:40:40;;;;;;;4.53;2.50;;;8.30;99.90;;;;;;4957068;28;20094;-90
2023/11/10 09:43:07;;;;;;;2.83;2.40;;;8.50;99.90;;;;;;4974063;28;20485;-91
2023/11/10 09:45:35;;;;;;;3.47;2.20;;;8.70;99.90;;;;;;4956204;28;20051;-91
2023/11/10 09:48:06;;;;;;;3.35;2.10;;;9.00;99.90;;;;;;4957431;28;20122;-91
2023/11/10 09:50:35;;;;;;;4.22;2.20;;;9.20;99.90;;;;;;4973657;28;20023;-92
2023/11/10 09:53:03;;;;;;;5.20;1.80;;;9.30;99.90;;;;;;4971213;28;20027;-90
2023/11/10 09:55:29;;;;;;;3.35;2.03;;;9.30;99.90;;;;;;4957104;28;20043;-92
2023/11/10 09:57:56;;;;;;;2.90;1.95;;;9.40;99.90;;;;;;4957077;28;20027;-91
2023/11/10 10:00:22;;;;;;;3.28;2.20;;;9.50;99.90;;;;;;4973069;28;20030;-91
2023/11/10 10:02:51;;;;;;;2.72;1.63;;;9.70;99.90;;;;;;4957339;28;20027;-91
2023/11/10 10:05:17;;;;;;;2.45;1.70;;;9.90;99.90;;;;;;4973001;28;20028;-90
2023/11/10 10:07:47;;;;;;;5.28;2.00;;;10.00;99.90;;;;;;4956830;28;20023;-92
2023/11/10 10:10:13;;;;;;;2.17;1.70;;;10.20;99.90;;;;;;4972576;28;20038;-91
2023/11/10 10:12:40;;;;;;;3.92;1.70;;;10.40;99.90;;;;;;4975072;28;20030;-91
2023/11/10 10:15:06;;;;;;;3.75;1.50;;;10.50;99.90;;;;;;4972547;28;20046;-91
2023/11/10 10:17:36;;;;;;;2.88;1.27;;;10.60;99.90;;;;;;4972619;28;20154;-91
2023/11/10 10:20:09;;;;;;;3.35;1.40;;;10.80;99.90;;;;;;4967542;28;20031;-90
2023/11/10 10:22:42;;;;;;;2.30;1.70;;;10.70;99.90;;;;;;4972558;28;20046;-90
2023/11/10 10:25:08;;;;;;;3.70;1.65;;;10.50;99.90;;;;;;4972764;28;20047;-90
2023/11/10 10:27:34;;;;;;;3.47;1.30;;;10.20;99.90;;;;;;4956423;28;20503;-91
2023/11/10 10:30:00;;;;;;;7.22;1.40;;;10.00;99.90;;;;;;4956567;28;20110;-90
2023/11/10 10:32:26;;;;;;;1.70;1.23;;;9.80;99.90;;;;;;4972910;28;20027;-90
2023/11/10 10:34:51;;;;;;;4.38;1.30;;;9.60;99.90;;;;;;4972471;28;20023;-90
2023/11/10 10:37:18;;;;;;;2.33;1.30;;;9.40;99.90;;;;;;4972525;28;20492;-91
2023/11/10 10:39:45;;;;;;;3.45;1.40;;;9.20;99.90;;;;;;4956138;28;20031;-90
2023/11/10 10:42:14;;;;;;;1.73;1.30;;;9.20;99.90;;;;;;4956764;28;20038;-92
2023/11/10 10:44:43;;;;;;;3.63;1.50;;;9.10;99.90;;;;;;4953405;28;20042;-90
2023/11/10 10:47:10;;;;;;;4.80;1.48;;;9.10;99.90;;;;;;4956179;28;20023;-91
2023/11/10 10:49:37;;;;;;;4.55;1.38;;;8.90;99.90;;;;;;4970198;28;20042;-91
2023/11/10 10:52:04;;;;;;;3.30;1.30;;;8.90;99.90;;;;;;4956534;28;20059;-90
2023/11/10 10:54:30;;;;;;;5.15;1.60;;;9.00;99.90;;;;;;4972114;28;20067;-90
2023/11/10 10:57:00;;;;;;;4.53;1.10;;;9.30;99.90;;;;;;4959350;28;20030;-91
2023/11/10 10:59:28;;;;;;;2.43;1.20;;;9.80;99.90;;;;;;4955949;29;20126;-90
2023/11/10 11:01:55;;;;;;;2.25;1.00;;;10.30;99.90;;;;;;4958781;28;20050;-91
2023/11/10 11:04:39;;;;;;;2.83;1.20;;;10.60;99.90;;;;;;4968889;28;20023;-91
2023/11/10 11:07:16;;;;;;;2.50;0.98;;;10.80;99.90;;;;;;4953454;28;20135;-91
2023/11/10 11:10:16;;;;;;;2.60;1.05;;;11.20;99.90;;;;;;4968994;28;20047;-91
2023/11/10 11:12:55;;;;;;;2.83;1.38;;;11.30;99.90;;;;;;4969415;28;20110;-90
2023/11/10 11:15:31;;;;;;;6.18;1.33;;;11.20;99.90;;;;;;4982875;28;20034;-90
2023/11/10 11:18:30;;;;;;;3.30;1.30;;;11.00;99.90;;;;;;4973732;28;20051;-91
2023/11/10 11:20:56;;;;;;;2.28;1.10;;;10.80;99.90;;;;;;4966709;29;20042;-89
2023/11/10 11:23:23;;;;;;;3.55;2.10;;;10.50;99.90;;;;;;4967069;28;20039;-89
2023/11/10 11:25:58;;;;;;;2.22;1.05;;;10.20;99.90;;;;;;4976411;28;20024;-90
2023/11/10 11:28:34;;;;;;;3.75;1.08;;;10.00;99.90;;;;;;4964410;28;20027;-90
2023/11/10 11:31:12;;;;;;;2.65;1.00;;;9.70;99.90;;;;;;4973095;28;20480;-91
2023/11/10 11:33:48;;;;;;;8.13;1.10;;;9.50;99.90;;;;;;4959983;28;20086;-90
2023/11/10 11:36:18;;;;;;;0.85;0.65;;;9.30;99.90;;;;;;4978973;28;20074;-92
2023/11/10 11:38:45;;;;;;;3.20;0.93;;;9.20;99.90;;;;;;4967557;28;20038;-91
2023/11/10 11:41:14;;;;;;;2.10;1.08;;;9.10;99.90;;;;;;4958084;28;20027;-91
2023/11/10 11:43:53;;;;;;;4.43;0.80;;;9.10;99.90;;;;;;4959433;28;20019;-89
2023/11/10 11:46:18;;;;;;;2.53;0.70;;;9.10;99.90;;;;;;4975327;28;20597;-89
2023/11/10 11:48:44;;;;;;;2.15;0.80;;;9.10;99.90;;;;;;4974745;28;20077;-91
2023/11/10 11:51:11;;;;;;;4.32;1.27;;;9.10;99.90;;;;;;4974958;28;20064;-90
2023/11/10 11:53:37;;;;;;;2.35;0.88;;;9.10;99.90;;;;;;4985199;28;20459;-91
2023/11/10 11:56:03;;;;;;;3.13;0.75;;;9.00;99.90;;;;;;4997407;28;20038;-92
2023/11/10 11:58:29;;;;;;;2.30;0.93;;;9.00;99.90;;;;;;4982655;28;20033;-90
2023/11/10 12:00:55;;;;;;;2.00;0.60;;;9.00;99.90;;;;;;4959155;28;20106;-92
2023/11/10 12:03:22;;;;;;;1.48;0.70;;;9.00;99.90;;;;;;4987958;28;20034;-92
2023/11/10 12:05:47;;;;;;;2.78;0.80;;;9.30;99.90;;;;;;4985990;28;20076;-93
2023/11/10 12:08:16;;;;;;;2.38;0.60;;;9.80;99.90;;;;;;4967354;28;20039;-91
2023/11/10 12:10:45;;;;;;;3.28;0.70;;;10.20;99.90;;;;;;4974942;28;20030;-91
2023/11/10 12:13:13;;;;;;;1.67;0.70;;;10.30;99.90;;;;;;4970333;28;20114;-90
2023/11/10 12:15:42;;;;;;;2.65;0.70;;;10.40;99.90;;;;;;4959307;28;20031;-90
2023/11/10 12:18:11;;;;;;;2.95;0.80;;;10.30;99.90;;;;;;4974993;28;20027;-91
2023/11/10 12:20:37;;;;;;;3.22;0.63;;;10.20;99.90;;;;;;4959464;28;20133;-90
2023/11/10 12:23:06;;;;;;;0.80;0.50;;;10.00;99.90;;;;;;4960702;28;20050;-91
2023/11/10 12:25:38;;;;;;;2.47;1.20;;;9.90;99.90;;;;;;4960688;28;20053;-90
2023/11/10 12:28:10;;;;;;;2.50;0.75;;;9.70;99.90;;;;;;4974886;28;20107;-90
2023/11/10 12:30:36;;;;;;;2.22;0.80;;;9.60;99.90;;;;;;4956222;29;20027;-91
2023/11/10 12:33:02;;;;;;;4.30;0.75;;;9.50;99.90;;;;;;4965880;28;20038;-91
2023/11/10 12:35:28;;;;;;;3.33;0.73;;;9.30;99.90;;;;;;4956995;28;20039;-90
2023/11/10 12:37:54;;;;;;;1.27;0.63;;;9.40;99.90;;;;;;4969765;28;20030;-90
2023/11/10 12:40:22;;;;;;;3.65;0.77;;;9.60;99.90;;;;;;4959326;28;20049;-92
2023/11/10 12:42:48;;;;;;;1.95;0.60;;;9.90;99.90;;;;;;4959755;28;20023;-92
2023/11/10 12:45:16;;;;;;;2.10;0.68;;;10.10;99.90;;;;;;4971607;28;20559;-91
2023/11/10 12:47:47;;;;;;;2.88;0.70;;;10.10;99.90;;;;;;4975738;28;20034;-92
2023/11/10 12:50:15;;;;;;;3.83;0.85;;;10.00;99.90;;;;;;4993759;28;20027;-92
2023/11/10 12:52:43;;;;;;;2.75;0.90;;;10.00;99.90;;;;;;4992413;28;20062;-91
2023/11/10 12:55:09;;;;;;;3.30;1.15;;;10.30;99.90;;;;;;4994504;28;20066;-91